Terminal Aerodrome Forecast
Issued by NWS

Home | Current Version | Previous Version | Text Only | Print | Product List | Glossary On
Versions: 1 2 3 4 5 6 7 8 9 10 11 12 13 14 15 16 17 18 19 20 21 22 23 24 25
556
FTUS46 KPDT 210100 AAA
TAFBDN
TAF AMD
KBDN 210100Z 2101/2124 21005KT P6SM OVC040
     FM210600 VRB03KT 2SM -SN BR OVC015
     FM211000 31003KT 1SM -SN BR OVC007
     FM211500 33004KT P6SM OVC012
     FM212100 33007KT P6SM BKN025=

USA.gov is the U.S. government's official web portal to all federal, state and local government web resources and services.